Terminal Aerodrome Forecast
Issued by NWS Shreveport, LA

Home | Current Version | Previous Version | Text Only | Print | Product List | Glossary On
Versions: 1 2 3 4 5 6 7 8 9 10 11 12 13
000
FTUS44 KSHV 171700
TAFMLU
TAF
KMLU 171720Z 1718/1818 06005KT P6SM OVC250
     FM171900 06004KT P6SM OVC080
     FM180900 06003KT P6SM OVC050
     FM181300 05004KT P6SM -RA OVC035=

USA.gov is the U.S. government's official web portal to all federal, state and local government web resources and services.